createdAt,value
2023-05-19T00:00:58.079Z,73.19
2023-05-19T00:01:58.105Z,70.50
2023-05-19T00:02:58.195Z,70.78
2023-05-19T00:03:58.097Z,74.22
2023-05-19T00:04:58.108Z,71.20
2023-05-19T00:05:58.189Z,72.09
2023-05-19T00:06:58.219Z,71.42
2023-05-19T00:07:58.247Z,73.63
2023-05-19T00:08:58.516Z,73.45
2023-05-19T00:09:58.558Z,73.26
2023-05-19T00:10:58.237Z,73.18
2023-05-19T00:11:58.268Z,76.02
2023-05-19T00:12:58.255Z,73.01
2023-05-19T00:13:58.291Z,68.29
2023-05-19T00:14:58.290Z,72.21
2023-05-19T00:15:58.359Z,72.39
2023-05-19T00:16:58.321Z,72.02
2023-05-19T00:17:58.471Z,72.19
2023-05-19T00:18:58.413Z,72.14
2023-05-19T00:19:58.356Z,72.05
2023-05-19T00:20:58.396Z,69.06
2023-05-19T00:21:58.405Z,71.45
2023-05-19T00:22:58.423Z,71.42
2023-05-19T00:23:58.524Z,71.63
2023-05-19T00:24:58.493Z,71.66
2023-05-19T00:25:58.513Z,70.09
2023-05-19T00:26:58.505Z,73.66
2023-05-19T00:27:58.504Z,72.91
2023-05-19T00:28:58.549Z,72.64
2023-05-19T00:29:58.591Z,70.02
2023-05-19T00:30:58.636Z,68.95
2023-05-19T00:31:58.714Z,71.94
2023-05-19T00:32:58.707Z,71.50
2023-05-19T00:33:58.700Z,69.84
2023-05-19T00:34:58.726Z,69.55
2023-05-19T00:35:58.820Z,69.84
2023-05-19T00:36:58.786Z,72.50
2023-05-19T00:37:58.784Z,71.02
2023-05-19T00:38:58.820Z,70.04
2023-05-19T00:39:58.833Z,69.74
2023-05-19T00:40:58.927Z,67.26
2023-05-19T00:41:58.916Z,70.09
2023-05-19T00:42:58.925Z,70.18
2023-05-19T00:43:58.966Z,69.31
2023-05-19T00:44:59.035Z,71.07
2023-05-19T00:45:58.984Z,69.78
2023-05-19T00:46:59.079Z,70.49
2023-05-19T00:47:59.236Z,70.22
2023-05-19T00:48:59.030Z,69.93
2023-05-19T00:49:59.078Z,68.00
2023-05-19T00:50:59.101Z,70.38
2023-05-19T00:51:59.122Z,68.17
2023-05-19T00:52:59.982Z,65.98
2023-05-19T00:53:59.230Z,68.71
2023-05-19T00:54:59.177Z,72.80
2023-05-19T00:55:59.236Z,71.63
2023-05-19T00:56:59.277Z,67.98
2023-05-19T00:57:59.277Z,69.17
2023-05-19T00:58:59.304Z,70.08
2023-05-19T00:59:59.302Z,69.53
2023-05-19T01:00:59.420Z,71.46
2023-05-19T01:01:59.356Z,72.79
2023-05-19T01:02:59.535Z,72.26
2023-05-19T01:03:59.624Z,70.01
2023-05-19T01:04:59.457Z,71.21
2023-05-19T01:05:59.495Z,69.33
2023-05-19T01:06:59.526Z,70.48
2023-05-19T01:07:59.548Z,71.03
2023-05-19T01:08:59.577Z,69.16
2023-05-19T01:09:59.624Z,69.30
2023-05-19T01:10:59.667Z,70.49
2023-05-19T01:11:59.637Z,71.04
2023-05-19T01:12:59.687Z,73.47
2023-05-19T01:13:59.696Z,67.76
2023-05-19T01:14:59.724Z,71.32
2023-05-19T01:15:59.769Z,70.03
2023-05-19T01:16:59.723Z,70.36
2023-05-19T01:17:59.909Z,70.28
2023-05-19T01:18:59.868Z,68.39
2023-05-19T01:19:59.824Z,70.98
2023-05-19T01:20:59.870Z,69.49
2023-05-19T01:21:59.911Z,71.90
2023-05-19T01:22:59.934Z,70.85
2023-05-19T01:23:59.952Z,70.61
2023-05-19T01:25:00.004Z,68.41
2023-05-19T01:26:00.046Z,72.48
2023-05-19T01:27:00.050Z,68.36
2023-05-19T01:28:00.075Z,72.54
2023-05-19T01:29:00.170Z,69.91
2023-05-19T01:30:00.145Z,68.94
2023-05-19T01:31:00.178Z,71.08
2023-05-19T01:32:00.311Z,68.32
2023-05-19T01:33:00.379Z,66.81
2023-05-19T01:34:00.292Z,67.85
2023-05-19T01:35:00.312Z,66.62
2023-05-19T01:36:00.318Z,67.47
2023-05-19T01:37:00.316Z,69.82
2023-05-19T01:38:00.376Z,66.42
2023-05-19T01:39:00.376Z,66.24
2023-05-19T01:40:00.404Z,69.34
2023-05-19T01:41:00.405Z,68.00
2023-05-19T01:42:00.490Z,68.56
2023-05-19T01:43:00.515Z,69.26
2023-05-19T01:44:00.504Z,67.46
2023-05-19T01:45:00.607Z,69.44
2023-05-19T01:46:00.637Z,69.46
2023-05-19T01:47:00.647Z,67.14
2023-05-19T01:48:00.665Z,67.77
2023-05-19T01:49:00.756Z,66.55
2023-05-19T01:50:00.717Z,67.49
2023-05-19T01:51:00.765Z,67.97
2023-05-19T01:52:00.840Z,68.95
2023-05-19T01:53:00.837Z,67.06
2023-05-19T01:54:00.874Z,67.99
2023-05-19T01:55:00.911Z,67.35
2023-05-19T01:56:00.971Z,65.21
2023-05-19T01:57:00.931Z,66.70
2023-05-19T01:58:00.980Z,65.92
2023-05-19T01:59:01.025Z,68.10
2023-05-19T02:00:01.060Z,67.70
2023-05-19T02:01:01.156Z,67.70
2023-05-19T02:02:01.130Z,67.01
2023-05-19T02:03:01.182Z,68.66
2023-05-19T02:04:01.304Z,67.87
2023-05-19T02:05:01.223Z,67.63
2023-05-19T02:06:01.248Z,68.70
2023-05-19T02:07:01.324Z,68.75
2023-05-19T02:08:01.319Z,67.79
2023-05-19T02:09:01.356Z,66.46
2023-05-19T02:10:01.371Z,65.95
2023-05-19T02:11:01.399Z,64.76
2023-05-19T02:12:01.431Z,66.90
2023-05-19T02:13:01.503Z,65.99
2023-05-19T02:14:01.503Z,68.01
2023-05-19T02:15:01.536Z,66.85
2023-05-19T02:16:01.640Z,68.44
2023-05-19T02:17:01.561Z,69.02
2023-05-19T02:18:01.659Z,68.35
2023-05-19T02:19:01.735Z,68.32
2023-05-19T02:20:01.698Z,67.92
2023-05-19T02:21:01.750Z,69.87
2023-05-19T02:22:01.791Z,67.49
2023-05-19T02:23:01.818Z,66.51
2023-05-19T02:24:01.871Z,66.08
2023-05-19T02:25:01.907Z,67.70
2023-05-19T02:26:01.915Z,66.76
2023-05-19T02:27:01.939Z,66.59
2023-05-19T02:28:02.048Z,69.30
2023-05-19T02:29:02.019Z,68.86
2023-05-19T02:30:02.126Z,67.54
2023-05-19T02:31:02.095Z,67.21
2023-05-19T02:32:02.306Z,68.12
2023-05-19T02:33:02.214Z,66.51
2023-05-19T02:34:02.252Z,67.22
2023-05-19T02:35:02.254Z,67.82
2023-05-19T02:36:02.311Z,67.39
2023-05-19T02:37:02.306Z,67.06
2023-05-19T02:38:02.326Z,67.61
2023-05-19T02:39:02.378Z,68.84
2023-05-19T02:40:02.426Z,66.91
2023-05-19T02:41:02.554Z,66.16
2023-05-19T02:42:02.534Z,68.20
2023-05-19T02:43:02.550Z,68.56
2023-05-19T02:44:02.569Z,68.04
2023-05-19T02:45:02.580Z,66.75
2023-05-19T02:46:02.691Z,66.13
2023-05-19T02:47:02.676Z,67.26
2023-05-19T02:48:02.759Z,68.27
2023-05-19T02:49:02.793Z,67.58
2023-05-19T02:50:02.788Z,66.99
2023-05-19T02:51:02.810Z,66.83
2023-05-19T02:52:02.899Z,67.75
2023-05-19T02:53:02.878Z,68.77
2023-05-19T02:54:02.931Z,66.66
2023-05-19T02:55:03.000Z,66.79
2023-05-19T02:56:02.991Z,65.74
2023-05-19T02:57:03.038Z,67.16
2023-05-19T02:58:03.077Z,65.85
2023-05-19T02:59:03.084Z,66.23
2023-05-19T03:00:03.198Z,65.51
2023-05-19T03:01:03.174Z,67.58
2023-05-19T03:02:03.267Z,66.09
2023-05-19T03:03:03.365Z,66.66
2023-05-19T03:04:03.505Z,66.64
2023-05-19T03:05:03.326Z,66.33
2023-05-19T03:06:03.386Z,65.51
2023-05-19T03:07:03.421Z,67.07
2023-05-19T03:08:03.446Z,66.90
2023-05-19T03:09:03.486Z,67.20
2023-05-19T03:10:03.545Z,66.93
2023-05-19T03:11:03.556Z,65.35
2023-05-19T03:12:03.572Z,63.96
2023-05-19T03:13:03.683Z,65.36
2023-05-19T03:14:03.750Z,65.17
2023-05-19T03:15:03.810Z,65.22
2023-05-19T03:16:03.813Z,66.59
2023-05-19T03:17:03.758Z,66.43
2023-05-19T03:18:03.852Z,65.97
2023-05-19T03:19:03.912Z,65.60
2023-05-19T03:20:03.840Z,65.86
2023-05-19T03:21:03.925Z,65.73
2023-05-19T03:22:03.989Z,66.82
2023-05-19T03:23:03.992Z,65.50
2023-05-19T03:24:04.059Z,66.25
2023-05-19T03:25:04.060Z,66.16
2023-05-19T03:26:04.085Z,66.45
2023-05-19T03:27:04.128Z,65.94
2023-05-19T03:28:04.184Z,66.52
2023-05-19T03:29:04.208Z,64.56
2023-05-19T03:30:06.515Z,66.63
2023-05-19T03:31:04.356Z,66.56
2023-05-19T03:32:04.407Z,66.47
2023-05-19T03:33:04.592Z,65.33
2023-05-19T03:34:04.454Z,66.58
2023-05-19T03:35:04.526Z,66.16
2023-05-19T03:36:04.643Z,65.38
2023-05-19T03:37:04.557Z,66.42
2023-05-19T03:38:04.613Z,64.24
2023-05-19T03:39:04.617Z,65.76
2023-05-19T03:40:04.672Z,65.99
2023-05-19T03:41:04.727Z,66.53
2023-05-19T03:42:04.732Z,65.62
2023-05-19T03:43:04.808Z,66.55
2023-05-19T03:44:04.798Z,64.48
2023-05-19T03:45:04.873Z,66.02
2023-05-19T03:46:04.993Z,64.28
2023-05-19T03:47:04.935Z,65.42
2023-05-19T03:48:04.993Z,63.80
2023-05-19T03:49:05.015Z,65.73
2023-05-19T03:50:05.059Z,64.24
2023-05-19T03:51:05.063Z,65.59
2023-05-19T03:52:05.113Z,65.69
2023-05-19T03:53:05.155Z,66.18
2023-05-19T03:54:05.188Z,66.11
2023-05-19T03:55:05.191Z,65.29
2023-05-19T03:56:05.215Z,65.59
2023-05-19T03:57:05.276Z,67.18
2023-05-19T03:58:05.332Z,66.77
2023-05-19T03:59:05.354Z,65.47
2023-05-19T04:00:05.373Z,64.23
2023-05-19T04:01:05.449Z,64.70
2023-05-19T04:02:05.614Z,64.46
2023-05-19T04:03:05.586Z,64.87
2023-05-19T04:04:05.560Z,63.37
2023-05-19T04:05:05.640Z,67.38
2023-05-19T04:06:06.543Z,65.98
2023-05-19T04:07:05.690Z,65.84
2023-05-19T04:08:05.713Z,66.68
2023-05-19T04:09:05.756Z,66.75
2023-05-19T04:10:05.801Z,65.89
2023-05-19T04:11:05.813Z,66.11
2023-05-19T04:12:06.039Z,63.86
2023-05-19T04:13:05.875Z,65.81
2023-05-19T04:14:05.957Z,65.26
2023-05-19T04:15:06.000Z,61.21
2023-05-19T04:16:06.075Z,63.58
2023-05-19T04:17:06.081Z,64.37
2023-05-19T04:18:06.114Z,63.79
2023-05-19T04:19:06.250Z,62.40
2023-05-19T04:20:06.154Z,63.42
2023-05-19T04:21:06.214Z,61.54
2023-05-19T04:22:06.258Z,61.20
2023-05-19T04:23:06.324Z,60.51
2023-05-19T04:24:06.379Z,61.48
2023-05-19T04:25:06.412Z,61.73
2023-05-19T04:26:06.391Z,61.02
2023-05-19T04:27:06.498Z,62.02
2023-05-19T04:28:06.519Z,57.25
2023-05-19T04:29:06.547Z,58.39
2023-05-19T04:30:06.624Z,57.13
2023-05-19T04:31:06.757Z,56.94
2023-05-19T04:32:06.737Z,56.01
2023-05-19T04:33:06.769Z,55.53
2023-05-19T04:34:06.724Z,54.83
2023-05-19T04:35:06.826Z,54.09
2023-05-19T04:36:06.827Z,53.19
2023-05-19T04:37:06.849Z,51.57
2023-05-19T04:38:06.937Z,51.84
2023-05-19T04:39:06.969Z,53.06
2023-05-19T04:40:07.006Z,51.97
2023-05-19T04:41:07.065Z,52.88
2023-05-19T04:42:07.095Z,51.58
2023-05-19T04:43:07.138Z,51.90
2023-05-19T04:44:07.166Z,52.55
2023-05-19T04:45:07.223Z,51.42
2023-05-19T04:46:07.301Z,53.45
2023-05-19T04:47:07.337Z,53.65
2023-05-19T04:48:07.315Z,51.12
2023-05-19T04:49:07.346Z,50.63
2023-05-19T04:50:07.352Z,52.49
2023-05-19T04:51:07.475Z,50.53
2023-05-19T04:52:07.515Z,52.14
2023-05-19T04:53:07.484Z,53.74
2023-05-19T04:54:07.536Z,51.00
2023-05-19T04:55:07.550Z,51.78
2023-05-19T04:56:07.593Z,52.71
2023-05-19T04:57:07.641Z,50.66
2023-05-19T04:58:07.661Z,51.92
2023-05-19T04:59:07.687Z,51.01
2023-05-19T05:00:07.730Z,52.45
2023-05-19T05:01:07.793Z,51.64
2023-05-19T05:02:07.860Z,52.80
2023-05-19T05:03:08.042Z,50.81
2023-05-19T05:04:07.956Z,49.08
2023-05-19T05:05:08.011Z,50.65
2023-05-19T05:06:07.940Z,51.12
2023-05-19T05:07:07.973Z,50.51
2023-05-19T05:08:07.998Z,50.25
2023-05-19T05:09:08.042Z,49.97
2023-05-19T05:10:08.043Z,51.19
2023-05-19T05:11:08.078Z,52.15
2023-05-19T05:12:08.151Z,51.83
2023-05-19T05:13:09.053Z,51.04
2023-05-19T05:14:08.148Z,52.95
2023-05-19T05:15:08.181Z,51.48
2023-05-19T05:16:08.257Z,52.07
2023-05-19T05:17:08.347Z,52.53
2023-05-19T05:18:08.379Z,52.07
2023-05-19T05:19:08.347Z,49.48
2023-05-19T05:20:08.326Z,52.89
2023-05-19T05:21:08.358Z,50.28
2023-05-19T05:22:08.348Z,51.64
2023-05-19T05:23:08.385Z,51.92
2023-05-19T05:24:08.463Z,51.10
2023-05-19T05:25:08.454Z,52.35
2023-05-19T05:26:08.476Z,48.88
2023-05-19T05:27:08.523Z,50.78
2023-05-19T05:28:08.601Z,50.12
2023-05-19T05:29:08.587Z,51.33
2023-05-19T05:30:08.646Z,49.50
2023-05-19T05:31:08.670Z,50.46
2023-05-19T05:32:08.797Z,50.07
2023-05-19T05:33:08.926Z,45.93
2023-05-19T05:34:08.740Z,49.01
2023-05-19T05:35:08.754Z,50.84
2023-05-19T05:36:08.816Z,49.78
2023-05-19T05:37:08.866Z,51.37
2023-05-19T05:38:08.875Z,50.91
2023-05-19T05:39:08.914Z,51.19
2023-05-19T05:40:08.894Z,52.07
2023-05-19T05:41:08.999Z,51.88
2023-05-19T05:42:08.998Z,49.23
2023-05-19T05:43:09.048Z,51.74
2023-05-19T05:44:09.052Z,51.00
2023-05-19T05:45:09.029Z,51.99
2023-05-19T05:46:09.160Z,52.74
2023-05-19T05:47:09.115Z,52.60
2023-05-19T05:48:09.233Z,51.20
2023-05-19T05:49:09.174Z,51.45
2023-05-19T05:50:09.371Z,51.20
2023-05-19T05:51:09.249Z,51.76
2023-05-19T05:52:09.282Z,51.47
2023-05-19T05:53:09.315Z,52.94
2023-05-19T05:54:09.318Z,53.26
2023-05-19T05:55:09.479Z,51.09
2023-05-19T05:56:09.395Z,51.28
2023-05-19T05:57:09.471Z,51.53
2023-05-19T05:58:09.454Z,51.28
2023-05-19T05:59:09.461Z,49.81
2023-05-19T06:00:09.490Z,47.05
2023-05-19T06:01:09.506Z,50.81
2023-05-19T06:02:09.579Z,48.87
2023-05-19T06:03:09.854Z,49.93
2023-05-19T06:04:09.598Z,49.68
2023-05-19T06:05:09.616Z,47.38
2023-05-19T06:06:09.668Z,45.34
2023-05-19T06:07:09.780Z,49.86
2023-05-19T06:08:09.730Z,49.88
2023-05-19T06:09:09.724Z,50.83
2023-05-19T06:10:09.735Z,52.84
2023-05-19T06:11:09.836Z,48.37
2023-05-19T06:12:09.779Z,51.64
2023-05-19T06:13:09.850Z,52.43
2023-05-19T06:14:09.864Z,46.49
2023-05-19T06:15:09.872Z,50.53
2023-05-19T06:16:10.002Z,47.77
2023-05-19T06:17:09.955Z,47.15
2023-05-19T06:18:10.005Z,50.59
2023-05-19T06:19:10.010Z,47.49
2023-05-19T06:20:10.032Z,50.55
2023-05-19T06:21:10.010Z,47.99
2023-05-19T06:22:10.020Z,44.69
2023-05-19T06:23:10.064Z,49.07
2023-05-19T06:24:10.072Z,49.37
2023-05-19T06:25:10.118Z,44.19
2023-05-19T06:26:10.090Z,48.74
2023-05-19T06:27:10.117Z,46.94
2023-05-19T06:28:10.150Z,47.86
2023-05-19T06:29:10.184Z,44.48
2023-05-19T06:30:10.163Z,47.17
2023-05-19T06:31:10.278Z,49.69
2023-05-19T06:32:10.200Z,49.20
2023-05-19T06:33:10.253Z,49.42
2023-05-19T06:34:10.209Z,48.01
2023-05-19T06:35:10.284Z,47.45
2023-05-19T06:36:10.320Z,50.10
2023-05-19T06:37:10.293Z,48.80
2023-05-19T06:38:10.292Z,49.11
2023-05-19T06:39:10.338Z,51.20
2023-05-19T06:40:10.286Z,49.32
2023-05-19T06:41:10.345Z,51.57
2023-05-19T06:42:10.384Z,47.67
2023-05-19T06:43:10.324Z,50.40
2023-05-19T06:44:10.360Z,51.37
2023-05-19T06:45:10.391Z,47.89
2023-05-19T06:46:10.386Z,49.37
2023-05-19T06:47:10.424Z,49.32
2023-05-19T06:48:10.495Z,49.36
2023-05-19T06:49:10.423Z,50.45
2023-05-19T06:50:10.398Z,50.21
2023-05-19T06:51:11.002Z,49.60
2023-05-19T06:52:10.428Z,49.68
2023-05-19T06:53:10.474Z,45.89
2023-05-19T06:54:10.451Z,48.17
2023-05-19T06:55:10.452Z,45.40
2023-05-19T06:56:10.442Z,45.49
2023-05-19T06:57:10.449Z,47.83
2023-05-19T06:58:10.437Z,46.55
2023-05-19T06:59:10.435Z,46.07
2023-05-19T07:00:10.454Z,48.54
2023-05-19T07:01:10.454Z,46.06
2023-05-19T07:02:10.515Z,50.53
2023-05-19T07:03:10.543Z,48.11
2023-05-19T07:04:10.540Z,48.50
2023-05-19T07:05:10.465Z,49.95
2023-05-19T07:06:10.490Z,53.09
2023-05-19T07:07:10.479Z,52.60
2023-05-19T07:08:10.444Z,50.63
2023-05-19T07:09:10.499Z,47.73
2023-05-19T07:10:10.466Z,51.12
2023-05-19T07:11:10.526Z,51.09
2023-05-19T07:12:10.466Z,49.10
2023-05-19T07:13:10.490Z,52.28
2023-05-19T07:14:10.439Z,47.83
2023-05-19T07:15:10.454Z,49.53
2023-05-19T07:16:10.468Z,49.29
2023-05-19T07:17:10.442Z,48.54
2023-05-19T07:18:10.528Z,48.25
2023-05-19T07:19:10.522Z,46.22
2023-05-19T07:20:10.490Z,48.12
2023-05-19T07:21:10.425Z,49.48
2023-05-19T07:22:10.491Z,47.52
2023-05-19T07:23:10.461Z,49.46
2023-05-19T07:24:10.438Z,44.17
2023-05-19T07:25:10.456Z,46.59
2023-05-19T07:26:10.420Z,49.07
2023-05-19T07:27:10.543Z,49.81
2023-05-19T07:28:10.434Z,47.82
2023-05-19T07:29:10.466Z,44.33
2023-05-19T07:30:10.427Z,47.39
2023-05-19T07:31:10.434Z,48.03
2023-05-19T07:32:10.521Z,47.55
2023-05-19T07:33:10.532Z,45.35
2023-05-19T07:34:10.448Z,46.64
2023-05-19T07:35:10.478Z,45.60
2023-05-19T07:36:10.495Z,47.14
2023-05-19T07:37:10.534Z,44.25
2023-05-19T07:38:10.434Z,48.16
2023-05-19T07:39:10.507Z,43.94
2023-05-19T07:40:10.493Z,48.51
2023-05-19T07:41:10.457Z,46.26
2023-05-19T07:42:10.460Z,46.80
2023-05-19T07:43:10.470Z,45.45
2023-05-19T07:44:10.486Z,43.64
2023-05-19T07:45:10.414Z,45.28
2023-05-19T07:46:10.504Z,42.21
2023-05-19T07:47:10.438Z,44.80
2023-05-19T07:48:10.564Z,43.61
2023-05-19T07:49:10.478Z,41.70
2023-05-19T07:50:10.436Z,38.91
2023-05-19T07:51:10.480Z,41.61
2023-05-19T07:52:10.453Z,41.09
2023-05-19T07:53:10.434Z,37.00
2023-05-19T07:54:10.431Z,43.49
2023-05-19T07:55:10.449Z,38.81
2023-05-19T07:56:10.511Z,42.06
2023-05-19T07:57:10.464Z,42.83
2023-05-19T07:58:10.489Z,40.46
2023-05-19T07:59:10.491Z,42.01
2023-05-19T08:00:10.499Z,40.70
2023-05-19T08:01:10.486Z,39.20
2023-05-19T08:02:10.543Z,38.82
2023-05-19T08:03:10.709Z,37.30
2023-05-19T08:04:12.983Z,38.91
2023-05-19T08:05:10.565Z,36.35
2023-05-19T08:06:10.534Z,37.37
2023-05-19T08:07:10.536Z,39.03
2023-05-19T08:08:10.646Z,38.05
2023-05-19T08:09:10.511Z,36.58
2023-05-19T08:10:10.522Z,37.51
2023-05-19T08:11:10.490Z,35.76
2023-05-19T08:12:10.498Z,37.37
2023-05-19T08:13:10.485Z,33.92
2023-05-19T08:14:10.478Z,35.79
2023-05-19T08:15:10.492Z,34.68
2023-05-19T08:16:10.495Z,35.38
2023-05-19T08:17:10.438Z,32.26
2023-05-19T08:18:10.501Z,31.43
2023-05-19T08:19:10.472Z,31.09
2023-05-19T08:20:10.416Z,32.48
2023-05-19T08:21:10.433Z,34.67
2023-05-19T08:22:10.388Z,31.57
2023-05-19T08:23:10.444Z,34.89
2023-05-19T08:24:10.459Z,32.91
2023-05-19T08:25:10.453Z,36.04
2023-05-19T08:26:10.481Z,30.24
2023-05-19T08:27:10.400Z,32.19
2023-05-19T08:28:10.375Z,29.23
2023-05-19T08:29:10.413Z,29.91
2023-05-19T08:30:10.336Z,29.50
2023-05-19T08:31:10.368Z,30.88
2023-05-19T08:32:12.448Z,26.83
2023-05-19T08:33:10.395Z,27.01
2023-05-19T08:34:10.372Z,27.25
2023-05-19T08:35:10.305Z,28.62
2023-05-19T08:36:10.317Z,29.20
2023-05-19T08:37:10.335Z,32.04
2023-05-19T08:38:10.309Z,31.92
2023-05-19T08:39:10.330Z,31.72
2023-05-19T08:40:10.286Z,31.55
2023-05-19T08:41:10.332Z,33.43
2023-05-19T08:42:10.262Z,29.47
2023-05-19T08:43:10.261Z,26.91
2023-05-19T08:44:10.290Z,26.64
2023-05-19T08:45:10.246Z,29.61
2023-05-19T08:46:10.324Z,29.12
2023-05-19T08:47:10.386Z,26.65
2023-05-19T08:48:10.305Z,27.42
2023-05-19T08:49:10.274Z,29.97
2023-05-19T08:50:10.254Z,27.02
2023-05-19T08:51:10.218Z,28.38
2023-05-19T08:52:10.199Z,25.00
2023-05-19T08:53:21.114Z,27.91
2023-05-19T08:54:11.223Z,28.23
2023-05-19T08:55:10.207Z,29.03
2023-05-19T08:56:10.231Z,29.31
2023-05-19T08:57:10.174Z,28.63
2023-05-19T08:58:10.180Z,30.41
2023-05-19T08:59:10.167Z,27.89
2023-05-19T09:00:10.141Z,26.53
2023-05-19T09:01:10.207Z,27.68
2023-05-19T09:02:10.128Z,31.14
2023-05-19T09:03:23.150Z,31.06
2023-05-19T09:04:11.194Z,30.32
2023-05-19T09:05:10.176Z,31.19
2023-05-19T09:06:10.161Z,29.21
2023-05-19T09:07:10.090Z,30.07
2023-05-19T09:08:10.091Z,29.40
2023-05-19T09:09:10.074Z,29.60
2023-05-19T09:10:10.104Z,25.23
2023-05-19T09:11:10.120Z,30.02
2023-05-19T09:12:10.069Z,25.00
2023-05-19T09:13:10.142Z,27.36
2023-05-19T09:14:10.171Z,29.36
2023-05-19T09:15:10.207Z,30.49
2023-05-19T09:16:10.347Z,28.39
2023-05-19T09:17:10.389Z,29.45
2023-05-19T09:18:10.622Z,26.75
2023-05-19T09:19:10.454Z,28.16
2023-05-19T09:20:10.487Z,27.00
2023-05-19T09:21:10.488Z,25.00
2023-05-19T09:22:10.572Z,28.59
2023-05-19T09:23:10.651Z,26.74
2023-05-19T09:24:10.855Z,28.84
2023-05-19T09:25:10.767Z,32.31
2023-05-19T09:26:10.810Z,32.04
2023-05-19T09:27:10.885Z,34.09
2023-05-19T09:28:10.946Z,32.71
2023-05-19T09:29:10.954Z,31.34
2023-05-19T09:30:11.057Z,29.41
2023-05-19T09:31:11.193Z,28.99
2023-05-19T09:32:11.123Z,30.95
2023-05-19T09:33:11.203Z,32.31
2023-05-19T09:34:11.233Z,30.81
2023-05-19T09:35:11.294Z,25.72
2023-05-19T09:36:11.352Z,27.67
2023-05-19T09:37:11.413Z,30.45
2023-05-19T09:38:11.472Z,31.27
2023-05-19T09:39:11.572Z,28.06
2023-05-19T09:40:13.072Z,27.53
2023-05-19T09:41:11.718Z,26.78
2023-05-19T09:42:11.693Z,28.87
2023-05-19T09:43:11.788Z,29.22
2023-05-19T09:44:11.842Z,33.11
2023-05-19T09:45:11.929Z,28.14
2023-05-19T09:46:12.892Z,28.76
2023-05-19T09:47:12.109Z,30.31
2023-05-19T09:48:12.190Z,30.96
2023-05-19T09:49:12.226Z,26.88
2023-05-19T09:50:12.286Z,32.11
2023-05-19T09:51:12.411Z,28.28
2023-05-19T09:52:12.767Z,26.46
2023-05-19T09:53:12.486Z,25.00
2023-05-19T09:54:12.492Z,27.46
2023-05-19T09:55:12.574Z,25.80
2023-05-19T09:56:12.611Z,28.00
2023-05-19T09:57:12.705Z,25.17
2023-05-19T09:58:12.855Z,28.49
2023-05-19T09:59:12.971Z,25.74
2023-05-19T10:00:12.897Z,24.81
2023-05-19T10:01:12.957Z,31.34
2023-05-19T10:02:12.961Z,25.00
2023-05-19T10:03:13.117Z,28.06
2023-05-19T10:04:13.073Z,29.29
2023-05-19T10:05:13.204Z,25.00
2023-05-19T10:06:13.254Z,27.46
2023-05-19T10:07:13.379Z,26.35
2023-05-19T10:08:13.319Z,29.53
2023-05-19T10:09:13.380Z,30.82
2023-05-19T10:10:13.423Z,30.96
2023-05-19T10:11:13.491Z,29.48
2023-05-19T10:12:13.537Z,32.86
2023-05-19T10:13:13.588Z,29.74
2023-05-19T10:14:13.791Z,33.10
2023-05-19T10:15:13.691Z,27.80
2023-05-19T10:16:13.764Z,29.40
2023-05-19T10:17:13.815Z,29.58
2023-05-19T10:18:13.900Z,27.31
2023-05-19T10:19:13.974Z,27.87
2023-05-19T10:20:13.971Z,29.57
2023-05-19T10:21:14.025Z,28.69
2023-05-19T10:22:14.094Z,31.27
2023-05-19T10:23:14.175Z,26.00
2023-05-19T10:24:14.175Z,30.43
2023-05-19T10:25:14.248Z,28.05
2023-05-19T10:26:14.312Z,29.77
2023-05-19T10:27:14.500Z,34.11
2023-05-19T10:28:14.370Z,29.81
2023-05-19T10:29:14.428Z,29.81
2023-05-19T10:30:16.362Z,28.79
2023-05-19T10:31:14.520Z,28.88
2023-05-19T10:32:14.635Z,29.34
2023-05-19T10:33:14.692Z,26.97
2023-05-19T10:34:14.725Z,27.31
2023-05-19T10:35:14.755Z,31.02
2023-05-19T10:36:14.773Z,30.60
2023-05-19T10:37:14.795Z,31.59
2023-05-19T10:38:14.845Z,28.98
2023-05-19T10:39:14.899Z,29.30
2023-05-19T10:40:14.984Z,29.06
2023-05-19T10:41:14.973Z,28.91
2023-05-19T10:42:15.016Z,29.03
2023-05-19T10:43:15.052Z,26.85
2023-05-19T10:44:15.118Z,26.74
2023-05-19T10:45:15.193Z,28.23
2023-05-19T10:46:15.210Z,30.17
2023-05-19T10:47:15.238Z,25.85
2023-05-19T10:48:15.346Z,29.21
2023-05-19T10:49:15.328Z,29.05
2023-05-19T10:50:15.374Z,26.98
2023-05-19T10:51:15.427Z,28.65
2023-05-19T10:52:15.435Z,27.99
2023-05-19T10:53:15.501Z,27.88
2023-05-19T10:54:15.528Z,28.97
2023-05-19T10:55:15.564Z,28.38
2023-05-19T10:56:15.578Z,29.40
2023-05-19T10:57:15.764Z,29.84
2023-05-19T10:58:15.692Z,32.84
2023-05-19T10:59:15.709Z,32.44
2023-05-19T11:00:15.780Z,28.46
2023-05-19T11:01:15.878Z,30.57
2023-05-19T11:02:15.911Z,32.67
2023-05-19T11:03:15.939Z,30.18
2023-05-19T11:04:15.997Z,30.43
2023-05-19T11:05:15.906Z,33.90
2023-05-19T11:06:15.925Z,32.18
2023-05-19T11:07:15.971Z,34.21
2023-05-19T11:08:16.063Z,31.98
2023-05-19T11:09:16.052Z,33.55
2023-05-19T11:10:16.074Z,33.78
2023-05-19T11:11:16.142Z,32.67
2023-05-19T11:12:16.132Z,33.75
2023-05-19T11:13:16.156Z,33.77
2023-05-19T11:14:16.208Z,34.05
2023-05-19T11:15:16.226Z,34.51
2023-05-19T11:16:16.265Z,34.02
2023-05-19T11:17:16.302Z,33.06
2023-05-19T11:18:16.350Z,36.88
2023-05-19T11:19:16.318Z,35.73
2023-05-19T11:20:16.365Z,32.91
2023-05-19T11:21:16.387Z,36.71
2023-05-19T11:22:16.394Z,34.58
2023-05-19T11:23:16.424Z,37.60
2023-05-19T11:24:16.540Z,36.91
2023-05-19T11:25:16.488Z,34.19
2023-05-19T11:26:16.460Z,34.93
2023-05-19T11:27:16.526Z,37.48
2023-05-19T11:28:16.563Z,36.40
2023-05-19T11:29:16.563Z,35.16
2023-05-19T11:30:16.624Z,36.14
2023-05-19T11:31:16.765Z,36.55
2023-05-19T11:32:16.693Z,34.46
2023-05-19T11:33:16.687Z,35.78
2023-05-19T11:34:16.667Z,37.28
2023-05-19T11:35:16.701Z,35.55
2023-05-19T11:36:16.718Z,35.26
2023-05-19T11:37:17.758Z,36.97
2023-05-19T11:38:16.787Z,38.68
2023-05-19T11:39:16.818Z,33.69
2023-05-19T11:40:16.807Z,37.76
2023-05-19T11:41:18.740Z,37.73
2023-05-19T11:42:17.021Z,38.96
2023-05-19T11:43:17.002Z,38.97
2023-05-19T11:44:17.012Z,40.82
2023-05-19T11:45:17.048Z,40.30
2023-05-19T11:46:17.104Z,38.15
2023-05-19T11:47:17.092Z,40.88
2023-05-19T11:48:17.175Z,35.64
2023-05-19T11:49:17.143Z,37.14
2023-05-19T11:50:17.156Z,37.73
2023-05-19T11:51:17.187Z,38.14
2023-05-19T11:52:17.231Z,39.13
2023-05-19T11:53:17.227Z,39.40
2023-05-19T11:54:17.208Z,40.26
2023-05-19T11:55:17.208Z,40.12
2023-05-19T11:56:17.255Z,39.64
2023-05-19T11:57:17.268Z,40.13
2023-05-19T11:58:17.564Z,42.45
2023-05-19T11:59:17.412Z,40.25
2023-05-19T12:00:17.263Z,39.81
2023-05-19T12:01:17.331Z,40.33
2023-05-19T12:02:17.352Z,38.30
2023-05-19T12:03:17.780Z,38.75
2023-05-19T12:04:17.360Z,41.32
2023-05-19T12:05:17.469Z,39.08
2023-05-19T12:06:17.548Z,39.55
2023-05-19T12:07:17.385Z,39.23
2023-05-19T12:08:17.398Z,41.81
2023-05-19T12:09:17.397Z,39.72
2023-05-19T12:10:17.413Z,41.73
2023-05-19T12:11:18.161Z,41.96
2023-05-19T12:12:17.447Z,42.36
2023-05-19T12:13:17.446Z,41.03
2023-05-19T12:14:17.486Z,41.64
2023-05-19T12:15:17.447Z,41.52
2023-05-19T12:17:17.482Z,38.97
2023-05-19T12:18:17.486Z,43.17
2023-05-19T12:19:17.567Z,42.28
2023-05-19T12:20:17.479Z,40.55
2023-05-19T12:21:17.595Z,40.26
2023-05-19T12:22:17.482Z,43.57
2023-05-19T12:23:17.509Z,40.45
2023-05-19T12:24:17.532Z,41.48
2023-05-19T12:25:17.550Z,38.52
2023-05-19T12:26:17.571Z,40.49
2023-05-19T12:27:17.567Z,40.78
2023-05-19T12:28:17.553Z,40.11
2023-05-19T12:29:17.591Z,40.63
2023-05-19T12:30:17.594Z,42.19
2023-05-19T12:31:17.715Z,42.20
2023-05-19T12:32:17.658Z,39.38
2023-05-19T12:33:17.625Z,39.96
2023-05-19T12:34:17.613Z,41.14
2023-05-19T12:35:17.693Z,42.90
2023-05-19T12:36:17.646Z,40.48
2023-05-19T12:37:17.670Z,43.20
2023-05-19T12:38:17.681Z,43.77
2023-05-19T12:39:18.426Z,44.28
2023-05-19T12:40:17.623Z,44.38
2023-05-19T12:41:17.641Z,40.13
2023-05-19T12:42:17.677Z,42.51
2023-05-19T12:43:17.679Z,41.91
2023-05-19T12:44:17.715Z,45.54
2023-05-19T12:45:17.653Z,43.20
2023-05-19T12:46:17.673Z,42.92
2023-05-19T12:47:17.755Z,44.41
2023-05-19T12:48:17.839Z,43.81
2023-05-19T12:49:17.657Z,43.04
2023-05-19T12:50:17.655Z,44.14
2023-05-19T12:51:17.672Z,43.14
2023-05-19T12:52:17.670Z,43.63
2023-05-19T12:53:17.710Z,40.76
2023-05-19T12:54:17.662Z,45.23